Time,TemperatureF,DewpointF,PressureIn,WindDirection,WindDirectionDegrees,WindSpeedMPH,WindSpeedGustMPH,Humidity,HourlyPrecipIn,Conditions,Clouds,dailyrainin,SolarRadiationWatts/m^2,SoftwareType,DateUTC
2013-05-22 00:03:00,67.0,63.3,29.82,SW,230,4.0,7.0,88,0.00,,---,0.00,0.00,VWS V14.00,2013-05-22 04:03:00,
2013-05-22 00:04:00,67.0,63.3,29.82,SW,229,4.0,7.0,88,0.00,,---,0.00,0.00,VWS V14.00,2013-05-22 04:04:00,
2013-05-22 00:09:00,67.0,63.3,29.81,SSW,192,4.0,8.0,88,0.00,,---,0.00,0.00,VWS V14.00,2013-05-22 04:09:00,
2013-05-22 00:14:00,67.0,63.3,29.82,SSW,196,1.0,8.0,88,0.00,,---,0.00,0.00,VWS V14.00,2013-05-22 04:14:00,
2013-05-22 00:19:00,67.0,63.3,29.82,SW,222,2.0,6.0,88,0.00,,---,0.00,0.00,VWS V14.00,2013-05-22 04:19:00,
2013-05-22 00:24:00,67.1,63.4,29.83,SSW,209,0.0,10.0,88,0.00,,---,0.00,0.00,VWS V14.00,2013-05-22 04:24:00,
2013-05-22 00:29:00,67.1,63.1,29.82,SSW,195,0.0,8.0,87,0.00,,---,0.00,0.00,VWS V14.00,2013-05-22 04:29:00,
2013-05-22 00:34:00,67.2,63.2,29.82,SSE,158,3.0,6.0,87,0.00,,---,0.00,0.00,VWS V14.00,2013-05-22 04:34:00,
2013-05-22 00:39:00,67.1,63.1,29.82,South,186,0.0,5.0,87,0.00,,---,0.00,0.00,VWS V14.00,2013-05-22 04:39:00,
2013-05-22 00:44:00,67.1,63.1,29.82,SSW,211,2.0,5.0,87,0.00,,---,0.00,0.00,VWS V14.00,2013-05-22 04:44:00,
2013-05-22 00:49:00,67.1,63.1,29.82,SSW,207,1.0,5.0,87,0.00,,---,0.00,0.00,VWS V14.00,2013-05-22 04:49:00,
2013-05-22 00:54:00,67.0,63.0,29.82,SSW,207,0.0,1.0,87,0.00,,---,0.00,0.00,VWS V14.00,2013-05-22 04:54:00,
2013-05-22 00:59:00,66.9,62.9,29.82,SW,223,0.0,5.0,87,0.00,,---,0.00,0.00,VWS V14.00,2013-05-22 04:59:00,
2013-05-22 01:04:00,66.8,62.8,29.82,SE,140,0.0,2.0,87,0.00,,---,0.00,0.00,VWS V14.00,2013-05-22 05:04:00,
2013-05-22 01:09:00,66.7,62.7,29.82,SE,138,0.0,4.0,87,0.00,,---,0.00,0.00,VWS V14.00,2013-05-22 05:09:00,
2013-05-22 01:14:00,66.5,62.8,29.81,SW,219,1.0,5.0,88,0.00,,---,0.00,0.00,VWS V14.00,2013-05-22 05:14:00,
2013-05-22 01:19:00,66.5,62.5,29.81,SSW,212,1.0,6.0,87,0.00,,---,0.00,0.00,VWS V14.00,2013-05-22 05:19:00,
2013-05-22 01:24:00,66.5,62.8,29.81,SW,215,2.0,6.0,88,0.00,,---,0.00,0.00,VWS V14.00,2013-05-22 05:24:00,
2013-05-22 01:29:00,66.4,62.4,29.80,SSW,204,0.0,2.0,87,0.00,,---,0.00,0.00,VWS V14.00,2013-05-22 05:29:00,
2013-05-22 01:34:00,66.2,62.2,29.80,SSW,201,4.0,5.0,87,0.00,,---,0.00,0.00,VWS V14.00,2013-05-22 05:34:00,
2013-05-22 01:39:00,66.2,62.2,29.81,SSW,197,1.0,4.0,87,0.00,,---,0.00,0.00,VWS V14.00,2013-05-22 05:39:00,
2013-05-22 01:44:00,66.0,62.3,29.80,South,188,0.0,5.0,88,0.00,,---,0.00,0.00,VWS V14.00,2013-05-22 05:44:00,
2013-05-22 01:49:00,65.8,62.2,29.80,South,188,0.0,2.0,88,0.00,,---,0.00,0.00,VWS V14.00,2013-05-22 05:49:00,
2013-05-22 01:54:00,65.6,62.0,29.79,SE,146,1.0,2.0,88,0.00,,---,0.00,0.00,VWS V14.00,2013-05-22 05:54:00,
2013-05-22 01:59:00,65.4,61.8,29.79,SSE,157,0.0,3.0,88,0.00,,---,0.00,0.00,VWS V14.00,2013-05-22 05:59:00,
2013-05-22 02:04:00,65.2,61.6,29.79,SE,139,2.0,4.0,88,0.00,,---,0.00,0.00,VWS V14.00,2013-05-22 06:04:00,
2013-05-22 02:09:00,65.1,61.5,29.79,SE,136,0.0,3.0,88,0.00,,---,0.00,0.00,VWS V14.00,2013-05-22 06:09:00,
2013-05-22 02:14:00,64.9,61.3,29.79,SE,140,1.0,2.0,88,0.00,,---,0.00,0.00,VWS V14.00,2013-05-22 06:14:00,
2013-05-22 02:19:00,64.8,61.2,29.79,SW,234,0.0,3.0,88,0.00,,---,0.00,0.00,VWS V14.00,2013-05-22 06:19:00,
2013-05-22 02:24:00,64.8,61.2,29.79,SSE,165,0.0,8.0,88,0.00,,---,0.00,0.00,VWS V14.00,2013-05-22 06:24:00,
2013-05-22 02:29:00,64.7,61.1,29.79,SW,218,0.0,9.0,88,0.00,,---,0.00,0.00,VWS V14.00,2013-05-22 06:29:00,
2013-05-22 02:34:00,64.7,61.1,29.79,SSW,200,3.0,7.0,88,0.00,,---,0.00,0.00,VWS V14.00,2013-05-22 06:34:00,
2013-05-22 02:39:00,64.7,61.1,29.79,ESE,117,0.0,8.0,88,0.00,,---,0.00,0.00,VWS V14.00,2013-05-22 06:39:00,
2013-05-22 02:44:00,64.7,61.1,29.79,SSE,149,0.0,8.0,88,0.00,,---,0.00,0.00,VWS V14.00,2013-05-22 06:44:00,
2013-05-22 02:49:00,64.7,61.1,29.78,SW,229,0.0,7.0,88,0.00,,---,0.00,0.00,VWS V14.00,2013-05-22 06:49:00,
2013-05-22 02:54:00,64.8,61.2,29.79,SSW,209,1.0,7.0,88,0.00,,---,0.00,0.00,VWS V14.00,2013-05-22 06:54:00,
2013-05-22 02:59:00,64.7,61.1,29.79,SSE,150,1.0,9.0,88,0.00,,---,0.00,0.00,VWS V14.00,2013-05-22 06:59:00,
2013-05-22 03:04:00,64.8,61.2,29.78,SSW,211,1.0,8.0,88,0.00,,---,0.00,0.00,VWS V14.00,2013-05-22 07:04:00,
2013-05-22 03:09:00,64.8,61.2,29.78,South,184,3.0,7.0,88,0.00,,---,0.00,0.00,VWS V14.00,2013-05-22 07:09:00,
2013-05-22 03:14:00,64.7,61.1,29.78,SW,220,0.0,6.0,88,0.00,,---,0.00,0.00,VWS V14.00,2013-05-22 07:14:00,
2013-05-22 03:19:00,64.7,61.1,29.78,SW,221,1.0,7.0,88,0.00,,---,0.00,0.00,VWS V14.00,2013-05-22 07:19:00,
2013-05-22 03:24:00,64.6,61.0,29.77,SSE,163,0.0,8.0,88,0.00,,---,0.00,0.00,VWS V14.00,2013-05-22 07:24:00,
2013-05-22 03:29:00,64.6,61.0,29.77,SSW,207,3.0,7.0,88,0.00,,---,0.00,0.00,VWS V14.00,2013-05-22 07:29:00,
2013-05-22 03:34:00,64.6,61.0,29.77,WSW,256,4.0,6.0,88,0.00,,---,0.00,0.00,VWS V14.00,2013-05-22 07:34:00,
2013-05-22 03:39:00,64.6,61.0,29.77,WSW,244,0.0,6.0,88,0.00,,---,0.00,0.00,VWS V14.00,2013-05-22 07:39:00,
2013-05-22 03:44:00,64.5,60.9,29.76,SW,236,0.0,2.0,88,0.00,,---,0.00,0.00,VWS V14.00,2013-05-22 07:44:00,
2013-05-22 03:49:00,64.4,60.8,29.76,SW,236,0.0,0.0,88,0.00,,---,0.00,0.00,VWS V14.00,2013-05-22 07:49:00,
2013-05-22 03:54:00,64.2,60.6,29.76,SW,236,0.0,1.0,88,0.00,,---,0.00,0.00,VWS V14.00,2013-05-22 07:54:00,
2013-05-22 03:59:00,64.0,60.4,29.76,SW,236,0.0,0.0,88,0.00,,---,0.00,0.00,VWS V14.00,2013-05-22 07:59:00,
2013-05-22 04:04:00,63.9,60.3,29.76,SW,236,0.0,0.0,88,0.00,,---,0.00,0.00,VWS V14.00,2013-05-22 08:04:00,
2013-05-22 04:09:00,63.8,60.2,29.76,SW,236,0.0,0.0,88,0.00,,---,0.00,0.00,VWS V14.00,2013-05-22 08:09:00,
2013-05-22 04:14:00,63.7,60.1,29.76,SW,236,0.0,2.0,88,0.00,,---,0.00,0.00,VWS V14.00,2013-05-22 08:14:00,
2013-05-22 04:19:00,63.5,59.9,29.76,SW,236,0.0,0.0,88,0.00,,---,0.00,0.00,VWS V14.00,2013-05-22 08:19:00,
2013-05-22 04:24:00,63.3,59.7,29.76,SW,236,0.0,0.0,88,0.00,,---,0.00,0.00,VWS V14.00,2013-05-22 08:24:00,
2013-05-22 04:29:00,63.2,59.6,29.76,SW,236,0.0,0.0,88,0.00,,---,0.00,0.00,VWS V14.00,2013-05-22 08:29:00,
2013-05-22 04:34:00,63.1,59.5,29.76,WSW,238,2.0,2.0,88,0.00,,---,0.00,0.00,VWS V14.00,2013-05-22 08:34:00,
2013-05-22 04:39:00,63.0,59.4,29.77,WSW,240,2.0,4.0,88,0.00,,---,0.00,0.00,VWS V14.00,2013-05-22 08:39:00,
2013-05-22 04:44:00,62.9,59.3,29.78,WSW,248,0.0,5.0,88,0.00,,---,0.00,0.00,VWS V14.00,2013-05-22 08:44:00,
2013-05-22 04:49:00,62.8,59.2,29.78,WNW,298,3.0,5.0,88,0.00,,---,0.00,0.00,VWS V14.00,2013-05-22 08:49:00,
2013-05-22 04:54:00,62.8,59.2,29.79,WNW,292,2.0,4.0,88,0.00,,---,0.00,0.00,VWS V14.00,2013-05-22 08:54:00,
2013-05-22 04:59:00,62.8,59.2,29.78,WNW,297,0.0,5.0,88,0.00,,---,0.00,0.00,VWS V14.00,2013-05-22 08:59:00,
2013-05-22 05:04:00,62.7,59.1,29.79,NW,313,4.0,4.0,88,0.00,,---,0.00,0.00,VWS V14.00,2013-05-22 09:04:00,
2013-05-22 05:09:00,62.9,59.0,29.78,NW,304,3.0,5.0,87,0.00,,---,0.00,0.00,VWS V14.00,2013-05-22 09:09:00,
2013-05-22 05:14:00,63.0,59.1,29.78,NW,311,2.0,5.0,87,0.00,,---,0.00,0.00,VWS V14.00,2013-05-22 09:14:00,
2013-05-22 05:19:00,63.2,59.3,29.78,West,271,0.0,4.0,87,0.00,,---,0.00,0.00,VWS V14.00,2013-05-22 09:19:00,
2013-05-22 05:24:00,63.3,59.4,29.78,West,271,0.0,0.0,87,0.00,,---,0.00,0.00,VWS V14.00,2013-05-22 09:24:00,
2013-05-22 05:29:00,63.3,59.7,29.78,West,269,0.0,2.0,88,0.00,,---,0.00,0.00,VWS V14.00,2013-05-22 09:29:00,
2013-05-22 05:34:00,63.4,59.8,29.78,West,269,0.0,0.0,88,0.00,,---,0.00,0.00,VWS V14.00,2013-05-22 09:34:00,
2013-05-22 05:39:00,63.4,59.8,29.78,West,269,0.0,0.0,88,0.00,,---,0.00,0.00,VWS V14.00,2013-05-22 09:39:00,
2013-05-22 05:44:00,63.4,59.8,29.78,West,269,0.0,0.0,88,0.00,,---,0.00,0.00,VWS V14.00,2013-05-22 09:44:00,
2013-05-22 05:49:00,63.3,59.7,29.79,West,269,0.0,0.0,88,0.00,,---,0.00,0.00,VWS V14.00,2013-05-22 09:49:00,
2013-05-22 05:54:00,63.3,59.7,29.79,West,269,0.0,0.0,88,0.00,,---,0.00,0.00,VWS V14.00,2013-05-22 09:54:00,
2013-05-22 05:59:00,63.2,59.6,29.79,West,269,0.0,0.0,88,0.00,,---,0.00,0.00,VWS V14.00,2013-05-22 09:59:00,
2013-05-22 06:04:00,63.1,59.5,29.79,West,269,0.0,1.0,88,0.00,,---,0.00,0.00,VWS V14.00,2013-05-22 10:04:00,
2013-05-22 06:09:00,63.1,59.5,29.79,West,269,1.0,1.0,88,0.00,,---,0.00,0.00,VWS V14.00,2013-05-22 10:09:00,
2013-05-22 06:14:00,62.9,59.3,29.79,West,269,0.0,0.0,88,0.00,,---,0.00,0.00,VWS V14.00,2013-05-22 10:14:00,
2013-05-22 06:19:00,62.7,59.1,29.79,West,269,0.0,0.0,88,0.00,,---,0.00,0.00,VWS V14.00,2013-05-22 10:19:00,
2013-05-22 06:24:00,62.6,59.0,29.78,West,269,0.0,0.0,88,0.00,,---,0.00,0.00,VWS V14.00,2013-05-22 10:24:00,
2013-05-22 06:29:00,62.5,58.6,29.78,West,269,0.0,0.0,87,0.00,,---,0.00,5.00,VWS V14.00,2013-05-22 10:29:00,
2013-05-22 06:34:00,62.4,58.5,29.79,West,269,0.0,1.0,87,0.00,,---,0.00,7.00,VWS V14.00,2013-05-22 10:34:00,
2013-05-22 06:39:00,62.3,58.4,29.79,West,269,0.0,0.0,87,0.00,,---,0.00,11.00,VWS V14.00,2013-05-22 10:39:00,
2013-05-22 06:44:00,62.2,58.3,29.79,West,269,0.0,0.0,87,0.00,,---,0.00,14.00,VWS V14.00,2013-05-22 10:44:00,
2013-05-22 06:49:00,62.2,58.3,29.79,West,269,0.0,1.0,87,0.00,,---,0.00,19.00,VWS V14.00,2013-05-22 10:49:00,
2013-05-22 06:54:00,62.2,58.3,29.80,West,269,0.0,2.0,87,0.00,,---,0.00,26.00,VWS V14.00,2013-05-22 10:54:00,
2013-05-22 06:59:00,62.3,58.4,29.79,WSW,254,0.0,2.0,87,0.00,,---,0.00,32.00,VWS V14.00,2013-05-22 10:59:00,
2013-05-22 07:04:00,62.3,58.4,29.79,WSW,252,1.0,1.0,87,0.00,,---,0.00,39.00,VWS V14.00,2013-05-22 11:04:00,
2013-05-22 07:09:00,62.5,58.6,29.80,SW,215,1.0,3.0,87,0.00,,---,0.00,47.00,VWS V14.00,2013-05-22 11:09:00,
2013-05-22 07:14:00,62.6,58.7,29.80,South,172,3.0,4.0,87,0.00,,---,0.00,58.00,VWS V14.00,2013-05-22 11:14:00,
2013-05-22 07:19:00,62.8,58.9,29.80,South,171,1.0,4.0,87,0.00,,---,0.00,77.00,VWS V14.00,2013-05-22 11:19:00,
2013-05-22 07:24:00,63.1,59.2,29.80,South,171,0.0,3.0,87,0.00,,---,0.00,72.00,VWS V14.00,2013-05-22 11:24:00,
2013-05-22 07:29:00,63.2,59.3,29.80,South,171,0.0,2.0,87,0.00,,---,0.00,114.00,VWS V14.00,2013-05-22 11:29:00,
2013-05-22 07:34:00,63.5,59.6,29.80,South,171,0.0,2.0,87,0.00,,---,0.00,123.00,VWS V14.00,2013-05-22 11:34:00,
2013-05-22 07:39:00,63.7,59.8,29.80,SSE,148,1.0,3.0,87,0.00,,---,0.00,113.00,VWS V14.00,2013-05-22 11:39:00,
2013-05-22 07:44:00,63.8,60.2,29.80,SSE,152,0.0,4.0,88,0.00,,---,0.00,77.00,VWS V14.00,2013-05-22 11:44:00,
2013-05-22 07:49:00,63.9,60.3,29.80,South,186,0.0,6.0,88,0.00,,---,0.00,91.00,VWS V14.00,2013-05-22 11:49:00,
2013-05-22 07:54:00,64.0,60.4,29.80,South,187,0.0,2.0,88,0.00,,---,0.00,95.00,VWS V14.00,2013-05-22 11:54:00,
2013-05-22 07:59:00,64.1,60.5,29.80,SE,142,0.0,7.0,88,0.00,,---,0.00,67.00,VWS V14.00,2013-05-22 11:59:00,
2013-05-22 08:04:00,64.5,60.9,29.80,SSE,152,0.0,5.0,88,0.00,,---,0.00,223.00,VWS V14.00,2013-05-22 12:04:00,
2013-05-22 08:10:00,65.1,61.5,29.80,South,188,0.0,0.0,88,0.00,,---,0.00,244.00,VWS V14.00,2013-05-22 12:10:00,
2013-05-22 08:15:00,65.6,62.0,29.79,SSE,154,4.0,5.0,88,0.00,,---,0.00,262.00,VWS V14.00,2013-05-22 12:15:00,
2013-05-22 08:20:00,66.0,62.7,29.80,SW,217,1.0,2.0,89,0.00,,---,0.00,279.00,VWS V14.00,2013-05-22 12:20:00,
2013-05-22 08:25:00,66.5,62.8,29.79,South,172,7.0,8.0,88,0.00,,---,0.00,297.00,VWS V14.00,2013-05-22 12:25:00,
2013-05-22 08:30:00,67.0,63.3,29.80,SE,144,1.0,1.0,88,0.00,,---,0.00,309.00,VWS V14.00,2013-05-22 12:30:00,
2013-05-22 08:35:00,67.5,63.8,29.80,East,86,4.0,4.0,88,0.00,,---,0.00,339.00,VWS V14.00,2013-05-22 12:35:00,
2013-05-22 08:40:00,67.9,63.9,29.80,SW,225,5.0,7.0,87,0.00,,---,0.00,359.00,VWS V14.00,2013-05-22 12:40:00,
2013-05-22 08:45:00,68.0,64.0,29.80,WSW,237,4.0,6.0,87,0.00,,---,0.00,455.00,VWS V14.00,2013-05-22 12:45:00,
2013-05-22 08:50:00,68.0,64.0,29.81,SW,223,6.0,7.0,87,0.00,,---,0.00,192.00,VWS V14.00,2013-05-22 12:50:00,
2013-05-22 08:55:00,67.9,63.9,29.80,SSW,212,6.0,7.0,87,0.00,,---,0.00,151.00,VWS V14.00,2013-05-22 12:55:00,
2013-05-22 09:00:00,67.8,63.8,29.81,WSW,244,3.0,5.0,87,0.00,,---,0.00,295.00,VWS V14.00,2013-05-22 13:00:00,
2013-05-22 09:05:00,68.1,64.1,29.81,WSW,245,1.0,4.0,87,0.00,,---,0.00,200.00,VWS V14.00,2013-05-22 13:05:00,
2013-05-22 09:10:00,68.3,64.3,29.81,SW,233,2.0,6.0,87,0.00,,---,0.00,199.00,VWS V14.00,2013-05-22 13:10:00,
2013-05-22 09:15:00,68.4,64.1,29.81,SW,224,9.0,9.0,86,0.00,,---,0.00,241.00,VWS V14.00,2013-05-22 13:15:00,
2013-05-22 09:20:00,68.6,64.2,29.81,WSW,244,7.0,8.0,86,0.00,,---,0.00,297.00,VWS V14.00,2013-05-22 13:20:00,
2013-05-22 09:25:00,69.0,64.6,29.82,West,279,6.0,9.0,86,0.00,,---,0.00,555.00,VWS V14.00,2013-05-22 13:25:00,
2013-05-22 09:30:00,69.4,64.4,29.82,SW,226,7.0,9.0,84,0.00,,---,0.00,225.00,VWS V14.00,2013-05-22 13:30:00,
2013-05-22 09:35:00,69.7,64.7,29.82,NW,313,6.0,6.0,84,0.00,,---,0.00,425.00,VWS V14.00,2013-05-22 13:35:00,
2013-05-22 09:40:00,69.7,64.3,29.82,SSW,209,7.0,9.0,83,0.00,,---,0.00,236.00,VWS V14.00,2013-05-22 13:40:00,
2013-05-22 09:45:00,69.7,64.3,29.82,West,277,6.0,6.0,83,0.00,,---,0.00,225.00,VWS V14.00,2013-05-22 13:45:00,
2013-05-22 09:50:00,69.9,64.5,29.81,SW,225,4.0,10.0,83,0.00,,---,0.00,696.00,VWS V14.00,2013-05-22 13:50:00,
2013-05-22 09:55:00,70.3,64.9,29.81,SSW,202,10.0,10.0,83,0.00,,---,0.00,624.00,VWS V14.00,2013-05-22 13:55:00,
2013-05-22 10:00:00,70.5,64.8,29.80,SSW,213,6.0,8.0,82,0.00,,---,0.00,533.00,VWS V14.00,2013-05-22 14:00:00,
2013-05-22 10:05:00,70.6,64.8,29.81,SW,232,13.0,13.0,82,0.00,,---,0.00,700.00,VWS V14.00,2013-05-22 14:05:00,
2013-05-22 10:10:00,70.8,65.0,29.81,SW,226,2.0,5.0,82,0.00,,---,0.00,596.00,VWS V14.00,2013-05-22 14:10:00,
2013-05-22 10:15:00,71.1,64.6,29.80,NW,319,8.0,8.0,80,0.00,,---,0.00,404.00,VWS V14.00,2013-05-22 14:15:00,
2013-05-22 10:20:00,71.5,65.4,29.79,WNW,294,9.0,11.0,81,0.00,,---,0.00,359.00,VWS V14.00,2013-05-22 14:20:00,
2013-05-22 10:25:00,71.7,64.8,29.79,WSW,239,1.0,2.0,79,0.00,,---,0.00,455.00,VWS V14.00,2013-05-22 14:25:00,
2013-05-22 10:30:00,71.9,65.0,29.79,SSW,208,5.0,5.0,79,0.00,,---,0.00,411.00,VWS V14.00,2013-05-22 14:30:00,
2013-05-22 10:35:00,72.1,65.6,29.79,SW,231,7.0,7.0,80,0.00,,---,0.00,420.00,VWS V14.00,2013-05-22 14:35:00,
2013-05-22 10:40:00,72.4,65.2,29.80,SW,230,7.0,7.0,78,0.00,,---,0.00,336.00,VWS V14.00,2013-05-22 14:40:00,
2013-05-22 10:45:00,72.2,65.0,29.79,SW,231,8.0,8.0,78,0.00,,---,0.00,315.00,VWS V14.00,2013-05-22 14:45:00,
2013-05-22 10:50:00,72.0,64.8,29.80,SSW,206,4.0,7.0,78,0.00,,---,0.00,304.00,VWS V14.00,2013-05-22 14:50:00,
2013-05-22 10:55:00,71.9,65.0,29.80,WSW,255,6.0,8.0,79,0.00,,---,0.00,345.00,VWS V14.00,2013-05-22 14:55:00,
2013-05-22 11:00:00,71.9,65.0,29.80,West,265,4.0,8.0,79,0.00,,---,0.00,352.00,VWS V14.00,2013-05-22 15:00:00,
2013-05-22 11:05:00,71.9,65.0,29.80,SW,221,4.0,7.0,79,0.00,,---,0.00,294.00,VWS V14.00,2013-05-22 15:05:00,
2013-05-22 11:10:00,72.1,65.2,29.80,SSW,197,4.0,6.0,79,0.00,,---,0.00,299.00,VWS V14.00,2013-05-22 15:10:00,
2013-05-22 11:15:00,72.1,65.2,29.80,SSW,207,10.0,10.0,79,0.00,,---,0.00,271.00,VWS V14.00,2013-05-22 15:15:00,
2013-05-22 11:20:00,71.8,64.9,29.80,SW,234,5.0,7.0,79,0.00,,---,0.00,274.00,VWS V14.00,2013-05-22 15:20:00,
2013-05-22 11:25:00,71.8,65.3,29.81,SSE,167,2.0,4.0,80,0.00,,---,0.00,315.00,VWS V14.00,2013-05-22 15:25:00,
2013-05-22 11:30:00,72.0,65.1,29.81,SSW,198,6.0,9.0,79,0.00,,---,0.00,527.00,VWS V14.00,2013-05-22 15:30:00,
2013-05-22 11:35:00,72.6,66.4,29.81,SSW,209,2.0,3.0,81,0.00,,---,0.00,749.00,VWS V14.00,2013-05-22 15:35:00,
2013-05-22 11:40:00,73.4,66.1,29.81,SE,136,2.0,5.0,78,0.00,,---,0.00,740.00,VWS V14.00,2013-05-22 15:40:00,
2013-05-22 11:45:00,73.6,65.6,29.80,SSW,203,3.0,9.0,76,0.00,,---,0.00,584.00,VWS V14.00,2013-05-22 15:45:00,
2013-05-22 11:50:00,73.8,65.4,29.80,WSW,251,5.0,6.0,75,0.00,,---,0.00,856.00,VWS V14.00,2013-05-22 15:50:00,
2013-05-22 11:55:00,74.2,65.8,29.79,South,188,6.0,7.0,75,0.00,,---,0.00,557.00,VWS V14.00,2013-05-22 15:55:00,
2013-05-22 12:00:00,74.4,66.3,29.79,SSE,153,1.0,2.0,76,0.00,,---,0.00,478.00,VWS V14.00,2013-05-22 16:00:00,
2013-05-22 12:05:00,74.6,66.9,29.79,SSE,156,4.0,5.0,77,0.00,,---,0.00,427.00,VWS V14.00,2013-05-22 16:05:00,
2013-05-22 12:10:00,74.6,66.2,29.79,SW,227,1.0,2.0,75,0.00,,---,0.00,406.00,VWS V14.00,2013-05-22 16:10:00,
2013-05-22 12:15:00,74.8,66.0,29.80,SSW,207,8.0,8.0,74,0.00,,---,0.00,404.00,VWS V14.00,2013-05-22 16:15:00,
2013-05-22 12:20:00,74.7,65.5,29.79,SW,218,11.0,11.0,73,0.00,,---,0.00,520.00,VWS V14.00,2013-05-22 16:20:00,
2013-05-22 12:25:00,74.7,65.9,29.79,South,183,12.0,12.0,74,0.00,,---,0.00,526.00,VWS V14.00,2013-05-22 16:25:00,
2013-05-22 12:30:00,74.9,66.4,29.79,SSE,157,4.0,7.0,75,0.00,,---,0.00,480.00,VWS V14.00,2013-05-22 16:30:00,
2013-05-22 12:35:00,75.5,66.6,29.79,SSW,213,4.0,4.0,74,0.00,,---,0.00,1027.00,VWS V14.00,2013-05-22 16:35:00,
2013-05-22 12:40:00,76.0,66.3,29.79,SW,219,7.0,8.0,72,0.00,,---,0.00,891.00,VWS V14.00,2013-05-22 16:40:00,
2013-05-22 12:45:00,76.7,65.8,29.79,NW,306,6.0,11.0,69,0.00,,---,0.00,633.00,VWS V14.00,2013-05-22 16:45:00,
2013-05-22 12:50:00,76.8,65.9,29.78,South,190,10.0,12.0,69,0.00,,---,0.00,763.00,VWS V14.00,2013-05-22 16:50:00,
2013-05-22 12:55:00,76.8,65.4,29.78,WSW,237,10.0,15.0,68,0.00,,---,0.00,1056.00,VWS V14.00,2013-05-22 16:55:00,
2013-05-22 13:00:00,76.9,66.4,29.78,SW,228,7.0,8.0,70,0.00,,---,0.00,1013.00,VWS V14.00,2013-05-22 17:00:00,
2013-05-22 13:05:00,77.5,66.5,29.78,WSW,257,8.0,16.0,69,0.00,,---,0.00,1063.00,VWS V14.00,2013-05-22 17:05:00,
2013-05-22 13:10:00,77.4,66.4,29.78,SW,215,2.0,8.0,69,0.00,,---,0.00,585.00,VWS V14.00,2013-05-22 17:10:00,
2013-05-22 13:15:00,77.4,66.0,29.78,WNW,294,7.0,11.0,68,0.00,,---,0.00,575.00,VWS V14.00,2013-05-22 17:15:00,
2013-05-22 13:20:00,77.6,66.6,29.78,SSW,192,9.0,10.0,69,0.00,,---,0.00,1206.00,VWS V14.00,2013-05-22 17:20:00,
2013-05-22 13:25:00,78.0,66.2,29.78,SW,232,8.0,14.0,67,0.00,,---,0.00,494.00,VWS V14.00,2013-05-22 17:25:00,
2013-05-22 13:30:00,78.1,66.7,29.78,South,180,7.0,12.0,68,0.00,,---,0.00,1248.00,VWS V14.00,2013-05-22 17:30:00,
2013-05-22 13:35:00,78.4,66.6,29.77,West,261,6.0,12.0,67,0.00,,---,0.00,1130.00,VWS V14.00,2013-05-22 17:35:00,
2013-05-22 13:40:00,78.9,66.6,29.77,West,281,5.0,9.0,66,0.00,,---,0.00,1053.00,VWS V14.00,2013-05-22 17:40:00,
2013-05-22 13:45:00,79.1,66.8,29.77,WNW,294,12.0,12.0,66,0.00,,---,0.00,599.00,VWS V14.00,2013-05-22 17:45:00,
2013-05-22 13:50:00,78.8,66.5,29.78,SW,221,10.0,16.0,66,0.00,,---,0.00,654.00,VWS V14.00,2013-05-22 17:50:00,
2013-05-22 13:55:00,78.8,67.4,29.78,SSW,200,7.0,13.0,68,0.00,,---,0.00,738.00,VWS V14.00,2013-05-22 17:55:00,
2013-05-22 14:00:00,78.2,65.9,29.78,SSW,193,10.0,18.0,66,0.00,,---,0.00,341.00,VWS V14.00,2013-05-22 18:00:00,
2013-05-22 14:05:00,77.8,66.4,29.77,South,190,8.0,20.0,68,0.00,,---,0.00,441.00,VWS V14.00,2013-05-22 18:05:00,
2013-05-22 14:10:00,77.6,66.2,29.78,SSW,211,5.0,12.0,68,0.00,,---,0.00,508.00,VWS V14.00,2013-05-22 18:10:00,
2013-05-22 14:15:00,77.5,65.7,29.77,South,191,5.0,18.0,67,0.00,,---,0.00,519.00,VWS V14.00,2013-05-22 18:15:00,
2013-05-22 14:20:00,77.6,65.8,29.77,WSW,246,11.0,16.0,67,0.00,,---,0.00,701.00,VWS V14.00,2013-05-22 18:20:00,
2013-05-22 14:25:00,78.2,66.8,29.78,SW,228,13.0,13.0,68,0.00,,---,0.00,522.00,VWS V14.00,2013-05-22 18:25:00,
2013-05-22 14:30:00,78.2,65.9,29.78,SSW,207,11.0,13.0,66,0.00,,---,0.00,668.00,VWS V14.00,2013-05-22 18:30:00,
2013-05-22 14:36:00,77.9,66.1,29.77,SW,223,8.0,15.0,67,0.00,,---,0.00,459.00,VWS V14.00,2013-05-22 18:36:00,
2013-05-22 14:41:00,78.1,67.1,29.77,SE,130,4.0,10.0,69,0.00,,---,0.00,598.00,VWS V14.00,2013-05-22 18:41:00,
2013-05-22 14:46:00,78.5,67.5,29.77,SSE,148,7.0,10.0,69,0.00,,---,0.00,853.00,VWS V14.00,2013-05-22 18:46:00,
2013-05-22 14:51:00,78.2,67.6,29.77,SSE,166,3.0,9.0,70,0.00,,---,0.00,248.00,VWS V14.00,2013-05-22 18:51:00,
2013-05-22 14:56:00,77.5,67.4,29.77,South,189,8.0,11.0,71,0.00,,---,0.00,387.00,VWS V14.00,2013-05-22 18:56:00,
2013-05-22 15:01:00,77.0,66.5,29.77,SE,141,6.0,10.0,70,0.00,,---,0.00,341.00,VWS V14.00,2013-05-22 19:01:00,
2013-05-22 15:06:00,76.9,66.4,29.77,SW,221,8.0,11.0,70,0.00,,---,0.00,420.00,VWS V14.00,2013-05-22 19:06:00,
2013-05-22 15:11:00,77.1,66.6,29.77,WSW,237,10.0,10.0,70,0.00,,---,0.00,330.00,VWS V14.00,2013-05-22 19:11:00,
2013-05-22 15:16:00,77.1,67.4,29.76,SSE,163,6.0,6.0,72,0.00,,---,0.00,401.00,VWS V14.00,2013-05-22 19:16:00,
2013-05-22 15:21:00,77.4,67.3,29.76,South,182,5.0,11.0,71,0.00,,---,0.00,439.00,VWS V14.00,2013-05-22 19:21:00,
2013-05-22 15:26:00,77.9,67.8,29.76,SSW,204,12.0,12.0,71,0.00,,---,0.00,1130.00,VWS V14.00,2013-05-22 19:26:00,
2013-05-22 15:31:00,77.9,66.1,29.76,SW,231,9.0,11.0,67,0.00,,---,0.00,330.00,VWS V14.00,2013-05-22 19:31:00,
2013-05-22 15:36:00,77.6,66.6,29.76,SSW,203,6.0,12.0,69,0.00,,---,0.00,905.00,VWS V14.00,2013-05-22 19:36:00,
2013-05-22 15:41:00,77.7,66.7,29.76,WSW,252,10.0,14.0,69,0.00,,---,0.00,997.00,VWS V14.00,2013-05-22 19:41:00,
2013-05-22 15:46:00,78.1,67.1,29.76,SW,234,11.0,12.0,69,0.00,,---,0.00,960.00,VWS V14.00,2013-05-22 19:46:00,
2013-05-22 15:51:00,78.0,67.4,29.75,SSE,164,0.0,7.0,70,0.00,,---,0.00,315.00,VWS V14.00,2013-05-22 19:51:00,
2013-05-22 15:56:00,77.8,66.4,29.75,SW,216,5.0,13.0,68,0.00,,---,0.00,1056.00,VWS V14.00,2013-05-22 19:56:00,
2013-05-22 16:01:00,77.9,67.3,29.75,South,184,7.0,12.0,70,0.00,,---,0.00,392.00,VWS V14.00,2013-05-22 20:01:00,
2013-05-22 16:06:00,77.7,66.7,29.75,SSW,197,7.0,11.0,69,0.00,,---,0.00,425.00,VWS V14.00,2013-05-22 20:06:00,
2013-05-22 16:11:00,77.8,67.2,29.74,South,189,11.0,13.0,70,0.00,,---,0.00,339.00,VWS V14.00,2013-05-22 20:11:00,
2013-05-22 16:16:00,77.8,67.2,29.74,SSW,195,5.0,13.0,70,0.00,,---,0.00,972.00,VWS V14.00,2013-05-22 20:16:00,
2013-05-22 16:21:00,78.1,67.5,29.74,WNW,300,6.0,13.0,70,0.00,,---,0.00,346.00,VWS V14.00,2013-05-22 20:21:00,
2013-05-22 16:26:00,77.9,67.3,29.73,SW,232,1.0,6.0,70,0.00,,---,0.00,443.00,VWS V14.00,2013-05-22 20:26:00,
2013-05-22 16:31:00,78.2,66.8,29.73,SSW,203,5.0,14.0,68,0.00,,---,0.00,492.00,VWS V14.00,2013-05-22 20:31:00,
2013-05-22 16:36:00,78.3,66.9,29.73,SSW,205,13.0,15.0,68,0.00,,---,0.00,884.00,VWS V14.00,2013-05-22 20:36:00,
2013-05-22 16:41:00,78.5,66.6,29.72,SW,231,8.0,23.0,67,0.00,,---,0.00,717.00,VWS V14.00,2013-05-22 20:41:00,
2013-05-22 16:46:00,78.1,66.7,29.72,WSW,240,12.0,12.0,68,0.00,,---,0.00,278.00,VWS V14.00,2013-05-22 20:46:00,
2013-05-22 16:51:00,77.8,66.0,29.71,WSW,252,6.0,19.0,67,0.00,,---,0.00,160.00,VWS V14.00,2013-05-22 20:51:00,
2013-05-22 16:56:00,77.4,66.4,29.71,SW,229,5.0,10.0,69,0.00,,---,0.00,155.00,VWS V14.00,2013-05-22 20:56:00,
2013-05-22 17:01:00,77.0,66.5,29.71,South,188,7.0,15.0,70,0.00,,---,0.00,171.00,VWS V14.00,2013-05-22 21:01:00,
2013-05-22 17:06:00,76.7,66.6,29.71,SSW,213,7.0,9.0,71,0.00,,---,0.00,98.00,VWS V14.00,2013-05-22 21:06:00,
2013-05-22 17:11:00,76.3,66.6,29.71,SE,140,2.0,11.0,72,0.00,,---,0.00,195.00,VWS V14.00,2013-05-22 21:11:00,
2013-05-22 17:16:00,76.0,66.7,29.71,SW,226,7.0,7.0,73,0.00,,---,0.00,229.00,VWS V14.00,2013-05-22 21:16:00,
2013-05-22 17:21:00,75.9,66.6,29.71,SW,225,5.0,10.0,73,0.00,,---,0.00,255.00,VWS V14.00,2013-05-22 21:21:00,
2013-05-22 17:26:00,75.7,66.4,29.72,SSW,212,4.0,12.0,73,0.00,,---,0.00,276.00,VWS V14.00,2013-05-22 21:26:00,
2013-05-22 17:31:00,75.7,66.8,29.72,SSW,198,7.0,7.0,74,0.00,,---,0.00,323.00,VWS V14.00,2013-05-22 21:31:00,
2013-05-22 17:36:00,75.7,67.2,29.71,SSW,202,7.0,10.0,75,0.00,,---,0.00,209.00,VWS V14.00,2013-05-22 21:36:00,
2013-05-22 17:41:00,75.7,66.8,29.71,SSW,209,7.0,11.0,74,0.00,,---,0.00,308.00,VWS V14.00,2013-05-22 21:41:00,
2013-05-22 17:46:00,75.9,67.4,29.71,SSE,165,0.0,9.0,75,0.00,,---,0.00,248.00,VWS V14.00,2013-05-22 21:46:00,
2013-05-22 17:51:00,76.1,67.6,29.71,SSW,194,5.0,11.0,75,0.00,,---,0.00,202.00,VWS V14.00,2013-05-22 21:51:00,
2013-05-22 17:56:00,75.9,67.0,29.71,WSW,249,6.0,12.0,74,0.00,,---,0.00,163.00,VWS V14.00,2013-05-22 21:56:00,
2013-05-22 18:01:00,75.6,67.1,29.71,SW,225,7.0,13.0,75,0.00,,---,0.00,109.00,VWS V14.00,2013-05-22 22:01:00,
2013-05-22 18:06:00,75.5,67.0,29.72,West,259,8.0,13.0,75,0.00,,---,0.00,113.00,VWS V14.00,2013-05-22 22:06:00,
2013-05-22 18:11:00,75.3,66.8,29.71,SW,219,10.0,11.0,75,0.00,,---,0.00,95.00,VWS V14.00,2013-05-22 22:11:00,
2013-05-22 18:16:00,75.2,66.7,29.71,SW,236,6.0,8.0,75,0.00,,---,0.00,37.00,VWS V14.00,2013-05-22 22:16:00,
2013-05-22 18:21:00,75.0,67.7,29.72,WNW,296,4.0,5.0,78,0.01,,---,0.01,39.00,VWS V14.00,2013-05-22 22:21:00,
2013-05-22 18:26:00,74.0,68.2,29.70,SSE,152,7.0,7.0,82,0.10,,---,0.10,107.00,VWS V14.00,2013-05-22 22:26:00,
2013-05-22 18:31:00,72.2,67.1,29.73,WSW,250,4.0,11.0,84,0.12,,---,0.12,39.00,VWS V14.00,2013-05-22 22:31:00,
2013-05-22 18:36:00,70.7,66.7,29.72,WNW,295,8.0,8.0,87,0.13,,---,0.13,54.00,VWS V14.00,2013-05-22 22:36:00,
2013-05-22 18:41:00,70.0,66.0,29.72,West,263,5.0,7.0,87,0.13,,---,0.13,33.00,VWS V14.00,2013-05-22 22:41:00,
2013-05-22 18:46:00,69.5,65.5,29.73,WNW,300,2.0,5.0,87,0.13,,---,0.13,11.00,VWS V14.00,2013-05-22 22:46:00,
2013-05-22 18:51:00,69.2,65.2,29.74,WNW,284,2.0,7.0,87,0.14,,---,0.14,12.00,VWS V14.00,2013-05-22 22:51:00,
2013-05-22 18:56:00,68.8,65.1,29.74,WSW,256,2.0,7.0,88,0.16,,---,0.16,5.00,VWS V14.00,2013-05-22 22:56:00,
2013-05-22 19:01:00,68.6,64.6,29.75,SSW,202,6.0,9.0,87,0.21,,---,0.21,5.00,VWS V14.00,2013-05-22 23:01:00,
2013-05-22 19:06:00,68.3,64.3,29.74,West,270,3.0,8.0,87,0.22,,---,0.22,12.00,VWS V14.00,2013-05-22 23:06:00,
2013-05-22 19:11:00,67.9,64.2,29.75,SSW,202,7.0,9.0,88,0.22,,---,0.22,11.00,VWS V14.00,2013-05-22 23:11:00,
2013-05-22 19:16:00,67.4,63.7,29.74,WSW,257,2.0,5.0,88,0.23,,---,0.23,19.00,VWS V14.00,2013-05-22 23:16:00,
2013-05-22 19:21:00,67.2,63.5,29.74,West,264,1.0,6.0,88,0.23,,---,0.23,33.00,VWS V14.00,2013-05-22 23:21:00,
2013-05-22 19:26:00,67.0,63.0,29.74,SW,234,2.0,4.0,87,0.19,,---,0.23,28.00,VWS V14.00,2013-05-22 23:26:00,
2013-05-22 19:31:00,66.9,63.2,29.75,South,186,5.0,6.0,88,0.11,,---,0.23,30.00,VWS V14.00,2013-05-22 23:31:00,
2013-05-22 19:36:00,66.9,63.2,29.75,SW,219,6.0,8.0,88,0.11,,---,0.23,7.00,VWS V14.00,2013-05-22 23:36:00,
2013-05-22 19:41:00,66.8,63.1,29.75,WSW,243,6.0,7.0,88,0.10,,---,0.23,9.00,VWS V14.00,2013-05-22 23:41:00,
2013-05-22 19:46:00,66.9,63.2,29.75,WNW,300,5.0,7.0,88,0.10,,---,0.23,16.00,VWS V14.00,2013-05-22 23:46:00,
2013-05-22 19:51:00,66.9,62.9,29.75,WSW,254,3.0,7.0,87,0.10,,---,0.23,12.00,VWS V14.00,2013-05-22 23:51:00,
2013-05-22 19:56:00,67.0,63.0,29.75,WNW,302,4.0,8.0,87,0.08,,---,0.23,5.00,VWS V14.00,2013-05-22 23:56:00,
2013-05-22 20:01:00,66.9,62.9,29.75,WNW,290,7.0,7.0,87,0.05,,---,0.23,5.00,VWS V14.00,2013-05-23 00:01:00,
2013-05-22 20:06:00,67.0,63.0,29.75,WNW,294,2.0,6.0,87,0.01,,---,0.23,5.00,VWS V14.00,2013-05-23 00:06:00,
2013-05-22 20:11:00,67.0,63.0,29.75,SW,234,2.0,6.0,87,0.01,,---,0.23,7.00,VWS V14.00,2013-05-23 00:11:00,
2013-05-22 20:16:00,67.0,63.0,29.75,WSW,245,3.0,8.0,87,0.00,,---,0.23,9.00,VWS V14.00,2013-05-23 00:16:00,
2013-05-22 20:21:00,67.0,63.0,29.75,SW,227,1.0,8.0,87,0.00,,---,0.23,9.00,VWS V14.00,2013-05-23 00:21:00,
2013-05-22 20:26:00,67.0,63.0,29.75,SW,234,0.0,3.0,87,0.00,,---,0.23,14.00,VWS V14.00,2013-05-23 00:26:00,
2013-05-22 20:31:00,67.1,63.1,29.75,WSW,253,5.0,5.0,87,0.00,,---,0.23,28.00,VWS V14.00,2013-05-23 00:31:00,
2013-05-22 20:36:00,67.1,63.1,29.75,WSW,257,1.0,5.0,87,0.00,,---,0.23,26.00,VWS V14.00,2013-05-23 00:36:00,
2013-05-22 20:41:00,67.1,63.1,29.76,WSW,239,0.0,5.0,87,0.00,,---,0.23,16.00,VWS V14.00,2013-05-23 00:41:00,
2013-05-22 20:46:00,67.1,63.1,29.75,SW,225,5.0,6.0,87,0.00,,---,0.23,12.00,VWS V14.00,2013-05-23 00:46:00,
2013-05-22 20:51:00,67.1,63.1,29.76,WSW,240,1.0,5.0,87,0.00,,---,0.23,5.00,VWS V14.00,2013-05-23 00:51:00,
2013-05-22 20:56:00,67.0,63.0,29.75,SW,227,4.0,5.0,87,0.00,,---,0.23,0.00,VWS V14.00,2013-05-23 00:56:00,
2013-05-22 21:01:00,67.0,63.0,29.75,WSW,245,1.0,4.0,87,0.00,,---,0.23,0.00,VWS V14.00,2013-05-23 01:01:00,
2013-05-22 21:06:00,66.9,62.9,29.75,WSW,248,2.0,4.0,87,0.00,,---,0.23,0.00,VWS V14.00,2013-05-23 01:06:00,
2013-05-22 21:11:00,66.9,62.9,29.75,WSW,248,0.0,4.0,87,0.00,,---,0.23,0.00,VWS V14.00,2013-05-23 01:11:00,
2013-05-22 21:16:00,66.8,62.8,29.75,SW,230,4.0,5.0,87,0.00,,---,0.23,0.00,VWS V14.00,2013-05-23 01:16:00,
2013-05-22 21:21:00,66.7,62.7,29.75,WSW,246,1.0,4.0,87,0.00,,---,0.23,0.00,VWS V14.00,2013-05-23 01:21:00,
2013-05-22 21:26:00,66.7,62.7,29.75,South,187,5.0,5.0,87,0.00,,---,0.23,0.00,VWS V14.00,2013-05-23 01:26:00,
2013-05-22 21:31:00,66.6,62.6,29.75,SW,225,0.0,2.0,87,0.00,,---,0.23,0.00,VWS V14.00,2013-05-23 01:31:00,
2013-05-22 21:36:00,66.6,62.6,29.75,SW,215,2.0,5.0,87,0.00,,---,0.23,0.00,VWS V14.00,2013-05-23 01:36:00,
2013-05-22 21:41:00,66.5,62.5,29.76,SW,217,4.0,5.0,87,0.00,,---,0.23,0.00,VWS V14.00,2013-05-23 01:41:00,
2013-05-22 21:47:00,66.5,62.5,29.76,SW,227,0.0,6.0,87,0.00,,---,0.23,0.00,VWS V14.00,2013-05-23 01:47:00,
2013-05-22 21:52:00,66.4,62.4,29.76,SW,217,0.0,7.0,87,0.00,,---,0.23,0.00,VWS V14.00,2013-05-23 01:52:00,
2013-05-22 21:57:00,66.3,62.3,29.76,SSW,208,5.0,5.0,87,0.00,,---,0.23,0.00,VWS V14.00,2013-05-23 01:57:00,
2013-05-22 22:02:00,66.3,62.3,29.76,South,178,3.0,9.0,87,0.00,,---,0.23,0.00,VWS V14.00,2013-05-23 02:02:00,
2013-05-22 22:07:00,66.2,62.2,29.76,West,260,4.0,8.0,87,0.00,,---,0.23,0.00,VWS V14.00,2013-05-23 02:07:00,
2013-05-22 22:12:00,66.1,62.1,29.76,SW,216,5.0,6.0,87,0.00,,---,0.23,0.00,VWS V14.00,2013-05-23 02:12:00,
2013-05-22 22:17:00,66.0,62.0,29.77,SW,217,4.0,8.0,87,0.00,,---,0.23,0.00,VWS V14.00,2013-05-23 02:17:00,
2013-05-22 22:22:00,66.0,62.0,29.77,SW,220,2.0,10.0,87,0.00,,---,0.23,0.00,VWS V14.00,2013-05-23 02:22:00,
2013-05-22 22:27:00,65.9,61.9,29.77,WSW,239,6.0,7.0,87,0.00,,---,0.23,0.00,VWS V14.00,2013-05-23 02:27:00,
2013-05-22 22:32:00,65.9,61.9,29.77,WSW,237,2.0,10.0,87,0.00,,---,0.23,0.00,VWS V14.00,2013-05-23 02:32:00,
2013-05-22 22:37:00,65.8,61.8,29.77,SW,234,5.0,8.0,87,0.00,,---,0.23,0.00,VWS V14.00,2013-05-23 02:37:00,
2013-05-22 22:42:00,65.8,61.8,29.77,SW,235,6.0,9.0,87,0.00,,---,0.23,0.00,VWS V14.00,2013-05-23 02:42:00,
2013-05-22 22:47:00,65.7,61.7,29.77,West,262,6.0,6.0,87,0.00,,---,0.23,0.00,VWS V14.00,2013-05-23 02:47:00,
2013-05-22 22:52:00,65.6,61.6,29.76,West,260,4.0,8.0,87,0.00,,---,0.23,0.00,VWS V14.00,2013-05-23 02:52:00,
2013-05-22 22:57:00,65.5,61.5,29.76,WSW,252,2.0,6.0,87,0.00,,---,0.23,0.00,VWS V14.00,2013-05-23 02:57:00,
2013-05-22 23:02:00,65.4,61.4,29.77,WSW,255,4.0,8.0,87,0.00,,---,0.23,0.00,VWS V14.00,2013-05-23 03:02:00,
2013-05-22 23:07:00,65.3,61.3,29.77,WSW,257,1.0,5.0,87,0.00,,---,0.23,0.00,VWS V14.00,2013-05-23 03:07:00,
2013-05-22 23:12:00,65.2,61.2,29.76,WSW,247,0.0,4.0,87,0.00,,---,0.23,0.00,VWS V14.00,2013-05-23 03:12:00,
2013-05-22 23:17:00,65.1,61.1,29.77,West,276,4.0,7.0,87,0.00,,---,0.23,0.00,VWS V14.00,2013-05-23 03:17:00,
2013-05-22 23:22:00,65.0,61.0,29.77,WNW,302,4.0,6.0,87,0.00,,---,0.23,0.00,VWS V14.00,2013-05-23 03:22:00,
2013-05-22 23:27:00,65.0,61.0,29.77,West,281,2.0,5.0,87,0.00,,---,0.23,0.00,VWS V14.00,2013-05-23 03:27:00,
2013-05-22 23:32:00,64.9,60.9,29.77,WSW,254,0.0,4.0,87,0.00,,---,0.23,0.00,VWS V14.00,2013-05-23 03:32:00,
2013-05-22 23:37:00,64.8,60.8,29.77,WSW,257,2.0,5.0,87,0.00,,---,0.23,0.00,VWS V14.00,2013-05-23 03:37:00,
2013-05-22 23:42:00,64.7,60.8,29.77,WNW,294,2.0,5.0,87,0.00,,---,0.23,0.00,VWS V14.00,2013-05-23 03:42:00,
2013-05-22 23:47:00,64.7,60.8,29.77,West,278,2.0,5.0,87,0.00,,---,0.23,0.00,VWS V14.00,2013-05-23 03:47:00,
2013-05-22 23:52:00,64.6,60.7,29.78,West,271,1.0,4.0,87,0.00,,---,0.23,0.00,VWS V14.00,2013-05-23 03:52:00,
2013-05-22 23:57:00,64.6,60.7,29.78,WSW,258,5.0,5.0,87,0.00,,---,0.00,0.00,VWS V14.00,2013-05-23 03:57:00,